createdAt,value
2019-04-04T00:01:10.476Z,32.35
2019-04-04T00:04:14.023Z,39.63
2019-04-04T00:07:17.566Z,33.08
2019-04-04T00:10:21.027Z,31.33
2019-04-04T00:13:24.562Z,32.63
2019-04-04T00:16:28.022Z,32.78
2019-04-04T00:19:31.325Z,32.70
2019-04-04T00:22:35.424Z,36.50
2019-04-04T00:25:40.497Z,33.88
2019-04-04T00:28:46.109Z,40.63
2019-04-04T00:31:50.287Z,34.18
2019-04-04T00:34:53.957Z,33.63
2019-04-04T00:37:57.498Z,33.35
2019-04-04T00:41:02.006Z,31.33
2019-04-04T00:44:05.392Z,34.50
2019-04-04T00:47:09.030Z,41.25
2019-04-04T00:50:12.697Z,37.80
2019-04-04T00:53:16.129Z,37.20
2019-04-04T00:56:19.498Z,33.75
2019-04-04T00:59:23.588Z,32.93
2019-04-04T01:02:27.889Z,35.43
2019-04-04T01:05:32.037Z,30.92
2019-04-04T01:08:38.278Z,34.27
2019-04-04T01:11:41.306Z,33.83
2019-04-04T01:14:44.717Z,33.75
2019-04-04T01:17:48.353Z,38.15
2019-04-04T01:20:51.821Z,39.63
2019-04-04T01:23:57.946Z,32.95
2019-04-04T01:27:00.562Z,38.25
2019-04-04T01:30:04.682Z,38.92
2019-04-04T01:33:08.115Z,34.75
2019-04-04T01:36:11.582Z,41.00
2019-04-04T01:39:14.883Z,36.63
2019-04-04T01:42:17.988Z,36.63
2019-04-04T01:45:21.269Z,35.17
2019-04-04T01:48:24.498Z,38.23
2019-04-04T01:51:27.561Z,35.25
2019-04-04T01:54:32.042Z,34.40
2019-04-04T01:57:38.515Z,37.75
2019-04-04T02:00:41.140Z,37.33
2019-04-04T02:03:44.382Z,41.28
2019-04-04T02:06:47.735Z,41.05
2019-04-04T02:09:50.929Z,32.25
2019-04-04T02:12:54.013Z,47.98
2019-04-04T02:15:56.833Z,31.37
2019-04-04T02:19:00.180Z,37.17
2019-04-04T02:22:03.474Z,40.00
2019-04-04T02:25:06.901Z,36.77
2019-04-04T02:28:10.063Z,36.98
2019-04-04T02:31:13.569Z,34.53
2019-04-04T02:34:16.671Z,36.17
2019-04-04T02:37:21.343Z,31.12
2019-04-04T02:40:25.006Z,35.52
2019-04-04T02:43:28.632Z,35.52
2019-04-04T02:46:32.017Z,39.50
2019-04-04T02:49:35.209Z,31.52
2019-04-04T02:52:38.295Z,34.55
2019-04-04T02:55:41.490Z,35.15
2019-04-04T02:58:46.374Z,39.40
2019-04-04T03:01:49.757Z,34.75
2019-04-04T03:04:53.055Z,33.73
2019-04-04T03:07:56.223Z,36.75
2019-04-04T03:10:59.441Z,33.65
2019-04-04T03:14:03.724Z,41.98
2019-04-04T03:17:07.851Z,32.50
2019-04-04T03:20:10.971Z,34.27
2019-04-04T03:23:14.131Z,35.85
2019-04-04T03:26:20.152Z,40.65
2019-04-04T03:29:23.286Z,34.23
2019-04-04T03:32:26.446Z,36.38
2019-04-04T03:35:29.733Z,37.03
2019-04-04T03:38:32.974Z,38.78
2019-04-04T03:41:36.443Z,34.95
2019-04-04T03:44:40.694Z,34.13
2019-04-04T03:47:51.162Z,39.60
2019-04-04T03:50:57.149Z,36.17
2019-04-04T03:54:01.775Z,34.23
2019-04-04T03:57:05.002Z,40.43
2019-04-04T04:00:09.287Z,30.17
2019-04-04T04:03:12.571Z,33.73
2019-04-04T04:06:16.011Z,32.13
2019-04-04T04:09:19.364Z,35.20
2019-04-04T04:12:22.596Z,39.92
2019-04-04T04:15:29.347Z,30.88
2019-04-04T04:18:30.895Z,40.73
2019-04-04T04:21:34.739Z,34.95
2019-04-04T04:24:37.897Z,35.73
2019-04-04T04:27:41.094Z,36.40
2019-04-04T04:30:44.332Z,34.88
2019-04-04T04:33:47.687Z,32.60
2019-04-04T04:41:37.848Z,36.15
2019-04-04T04:44:41.116Z,33.25
2019-04-04T04:47:44.213Z,41.65
2019-04-04T04:50:47.294Z,33.90
2019-04-04T04:53:51.246Z,39.75
2019-04-04T04:56:54.405Z,36.20
2019-04-04T04:59:57.489Z,32.63
2019-04-04T05:03:00.702Z,33.50
2019-04-04T05:06:03.939Z,34.55
2019-04-04T05:09:07.078Z,40.20
2019-04-04T05:12:10.217Z,33.10
2019-04-04T05:15:13.501Z,36.83
2019-04-04T05:18:17.100Z,34.73
2019-04-04T05:21:25.495Z,30.90
2019-04-04T05:24:25.540Z,34.33
2019-04-04T05:27:28.710Z,34.65
2019-04-04T05:30:31.974Z,36.98
2019-04-04T05:33:36.131Z,32.73
2019-04-04T05:36:39.425Z,32.23
2019-04-04T05:39:42.664Z,41.30
2019-04-04T05:42:45.826Z,35.65
2019-04-04T05:45:49.007Z,29.98
2019-04-04T05:48:52.100Z,32.25
2019-04-04T05:51:55.296Z,38.13
2019-04-04T05:54:58.590Z,32.58
2019-04-04T05:58:03.818Z,33.38
2019-04-04T06:01:08.041Z,31.55
2019-04-04T06:04:11.254Z,40.67
2019-04-04T06:07:16.346Z,30.80
2019-04-04T06:10:19.790Z,32.70
2019-04-04T06:13:23.091Z,28.65
2019-04-04T06:16:27.221Z,32.73
2019-04-04T06:19:30.398Z,30.97
2019-04-04T06:22:33.699Z,32.83
2019-04-04T06:25:37.455Z,29.50
2019-04-04T06:28:41.017Z,37.60
2019-04-04T06:31:44.305Z,31.37
2019-04-04T06:34:47.501Z,34.50
2019-04-04T06:37:51.410Z,33.02
2019-04-04T06:40:55.222Z,30.60
2019-04-04T06:43:58.461Z,35.78
2019-04-04T06:47:02.167Z,29.48
2019-04-04T06:50:08.054Z,28.65
2019-04-04T06:53:10.912Z,33.58
2019-04-04T06:56:14.074Z,27.60
2019-04-04T06:59:17.301Z,31.20
2019-04-04T07:02:21.998Z,28.50
2019-04-04T07:05:25.490Z,31.65
2019-04-04T07:08:38.363Z,32.45
2019-04-04T07:11:41.614Z,32.95
2019-04-04T07:14:46.010Z,29.05
2019-04-04T07:17:49.781Z,32.28
2019-04-04T07:20:53.141Z,29.85
2019-04-04T07:23:58.978Z,30.77
2019-04-04T07:27:01.170Z,38.85
2019-04-04T07:30:05.392Z,28.73
2019-04-04T07:33:11.799Z,28.23
2019-04-04T07:36:13.631Z,23.12
2019-04-04T07:39:16.855Z,28.62
2019-04-04T07:42:20.019Z,25.55
2019-04-04T07:45:25.966Z,26.77
2019-04-04T07:49:21.089Z,25.40
2019-04-04T07:52:24.695Z,24.05
2019-04-04T07:55:27.911Z,21.00
2019-04-04T07:58:31.118Z,20.90
2019-04-04T08:01:34.174Z,20.45
2019-04-04T08:04:37.378Z,20.32
2019-04-04T08:07:40.665Z,23.20
2019-04-04T08:10:43.867Z,21.87
2019-04-04T08:13:47.613Z,20.80
2019-04-04T08:17:01.419Z,22.32
2019-04-04T08:21:07.119Z,22.75
2019-04-04T08:29:49.357Z,21.95
2019-04-04T08:43:20.847Z,19.45
2019-04-04T08:46:52.343Z,21.00
2019-04-04T08:54:44.142Z,24.63
2019-04-04T09:05:49.668Z,18.60
2019-04-04T09:13:30.529Z,25.32
2019-04-04T09:22:06.440Z,18.35
2019-04-04T09:30:48.493Z,19.07
2019-04-04T09:33:51.870Z,20.82
2019-04-04T09:36:55.219Z,18.67
2019-04-04T09:39:58.502Z,20.95
2019-04-04T09:43:01.647Z,21.30
2019-04-04T09:50:42.747Z,20.48
2019-04-04T09:53:52.765Z,18.60
2019-04-04T09:56:51.201Z,18.65
2019-04-04T09:59:54.435Z,20.48
2019-04-04T10:02:57.694Z,31.40
2019-04-04T10:06:00.958Z,23.30
2019-04-04T10:09:15.455Z,19.37
2019-04-04T10:12:11.366Z,23.12
2019-04-04T10:15:15.444Z,21.37
2019-04-04T10:18:18.790Z,16.37
2019-04-04T10:21:22.026Z,19.32
2019-04-04T10:24:25.424Z,24.98
2019-04-04T10:27:31.445Z,18.85
2019-04-04T10:30:34.679Z,21.20
2019-04-04T10:33:37.913Z,17.67
2019-04-04T10:36:41.030Z,20.17
2019-04-04T10:39:44.175Z,19.90
2019-04-04T10:42:47.379Z,17.23
2019-04-04T10:45:51.649Z,16.02
2019-04-04T10:48:54.879Z,17.32
2019-04-04T10:51:57.966Z,18.15
2019-04-04T10:55:01.649Z,20.68
2019-04-04T10:58:06.271Z,17.27
2019-04-04T11:01:09.398Z,17.48
2019-04-04T11:04:12.454Z,17.92
2019-04-04T11:07:15.689Z,14.53
2019-04-04T11:10:18.846Z,17.40
2019-04-04T11:13:32.772Z,18.80
2019-04-04T11:16:30.497Z,15.93
2019-04-04T11:19:33.035Z,24.87
2019-04-04T11:22:36.121Z,18.40
2019-04-04T11:25:39.328Z,16.45
2019-04-04T11:28:42.628Z,13.10
2019-04-04T11:31:45.866Z,14.93
2019-04-04T11:34:53.484Z,12.07
2019-04-04T11:37:54.194Z,13.28
2019-04-04T11:40:57.386Z,14.35
2019-04-04T11:44:00.441Z,12.82
2019-04-04T11:47:03.570Z,16.10
2019-04-04T11:50:07.571Z,12.65
2019-04-04T11:53:10.742Z,11.95
2019-04-04T11:56:13.872Z,14.25
2019-04-04T11:59:17.190Z,16.48
2019-04-04T12:02:20.445Z,13.83
2019-04-04T12:05:24.289Z,11.88
2019-04-04T12:08:29.153Z,18.10
2019-04-04T12:11:32.403Z,11.10
2019-04-04T12:14:35.467Z,13.20
2019-04-04T12:17:38.790Z,9.88
2019-04-04T12:20:43.490Z,14.35
2019-04-04T12:23:46.891Z,13.43
2019-04-04T12:26:50.094Z,11.78
2019-04-04T12:29:53.630Z,10.82
2019-04-04T12:32:56.811Z,13.78
2019-04-04T12:36:00.223Z,16.20
2019-04-04T12:39:04.727Z,12.73
2019-04-04T12:42:09.853Z,11.22
2019-04-04T12:45:13.355Z,9.88
2019-04-04T12:48:16.762Z,10.75
2019-04-04T12:51:19.899Z,15.85
2019-04-04T12:54:23.146Z,16.30
2019-04-04T12:57:26.545Z,11.57
2019-04-04T13:00:29.638Z,16.27
2019-04-04T13:03:34.612Z,11.73
2019-04-04T13:06:39.520Z,13.50
2019-04-04T13:09:42.817Z,12.63
2019-04-04T13:12:47.042Z,16.85
2019-04-04T13:15:50.126Z,14.68
2019-04-04T13:18:53.214Z,9.75
2019-04-04T13:21:56.438Z,9.33
2019-04-04T13:24:59.601Z,10.58
2019-04-04T13:28:03.004Z,10.30
2019-04-04T13:31:06.304Z,8.00
2019-04-04T13:34:09.631Z,12.03
2019-04-04T13:37:12.938Z,12.55
2019-04-04T13:40:16.394Z,11.68
2019-04-04T13:43:22.510Z,13.05
2019-04-04T13:46:45.727Z,9.13
2019-04-04T13:49:48.822Z,7.28
2019-04-04T13:52:52.013Z,13.10
2019-04-04T13:55:58.086Z,11.38
2019-04-04T13:59:02.041Z,11.90
2019-04-04T14:02:05.282Z,9.25
2019-04-04T14:05:10.602Z,13.22
2019-04-04T14:08:14.482Z,15.20
2019-04-04T14:11:17.634Z,12.78
2019-04-04T14:14:20.767Z,9.28
2019-04-04T14:17:24.074Z,10.85
2019-04-04T14:20:28.558Z,9.33
2019-04-04T14:23:31.791Z,11.45
2019-04-04T14:26:35.042Z,9.48
2019-04-04T14:29:38.147Z,11.20
2019-04-04T14:32:41.371Z,9.75
2019-04-04T14:35:44.431Z,11.48
2019-04-04T14:38:47.763Z,8.05
2019-04-04T14:41:51.018Z,8.45
2019-04-04T14:44:54.214Z,12.93
2019-04-04T14:47:57.544Z,7.17
2019-04-04T14:51:00.798Z,7.67
2019-04-04T14:54:04.139Z,7.20
2019-04-04T14:57:07.385Z,7.05
2019-04-04T15:00:15.518Z,11.28
2019-04-04T15:03:17.702Z,9.90
2019-04-04T15:06:20.862Z,25.48
2019-04-04T15:09:24.027Z,8.28
2019-04-04T15:12:27.177Z,5.95
2019-04-04T15:15:30.441Z,8.03
2019-04-04T15:18:33.679Z,6.53
2019-04-04T15:21:36.725Z,7.87
2019-04-04T15:24:39.829Z,10.05
2019-04-04T15:27:43.019Z,8.83
2019-04-04T15:30:46.218Z,8.98
2019-04-04T15:33:50.543Z,8.53
2019-04-04T15:36:53.978Z,6.15
2019-04-04T15:39:57.341Z,7.40
2019-04-04T15:43:01.281Z,13.05
2019-04-04T15:46:05.269Z,7.35
2019-04-04T15:49:09.518Z,10.28
2019-04-04T15:52:12.573Z,7.80
2019-04-04T15:55:15.878Z,8.13
2019-04-04T15:58:19.010Z,11.10
2019-04-04T16:01:22.121Z,11.45
2019-04-04T16:04:25.454Z,13.70
2019-04-04T16:07:29.157Z,11.97
2019-04-04T16:10:32.358Z,10.28
2019-04-04T16:13:35.595Z,13.65
2019-04-04T16:16:38.881Z,11.65
2019-04-04T16:19:42.163Z,21.20
2019-04-04T16:22:45.342Z,16.90
2019-04-04T16:25:48.646Z,17.15
2019-04-04T16:28:51.970Z,12.98
2019-04-04T16:31:55.210Z,15.28
2019-04-04T16:34:58.328Z,11.55
2019-04-04T16:38:01.421Z,18.27
2019-04-04T16:41:04.518Z,19.57
2019-04-04T16:44:07.621Z,13.55
2019-04-04T16:47:10.901Z,14.10
2019-04-04T16:50:14.265Z,9.75
2019-04-04T16:53:17.298Z,12.53
2019-04-04T16:56:20.390Z,11.33
2019-04-04T16:59:23.485Z,13.30
2019-04-04T17:02:26.774Z,13.95
2019-04-04T17:05:29.873Z,15.10
2019-04-04T17:08:33.067Z,11.80
2019-04-04T17:11:36.262Z,13.32
2019-04-04T17:14:39.456Z,12.33
2019-04-04T17:17:42.749Z,12.75
2019-04-04T17:20:45.956Z,17.25
2019-04-04T17:23:49.141Z,24.52
2019-04-04T17:26:52.441Z,24.72
2019-04-04T17:29:55.812Z,17.42
2019-04-04T17:33:00.057Z,25.68
2019-04-04T17:36:03.630Z,23.25
2019-04-04T17:39:33.014Z,14.10
2019-04-04T17:42:36.657Z,18.15
2019-04-04T17:45:40.134Z,18.45
2019-04-04T17:48:43.174Z,19.02
2019-04-04T17:51:46.864Z,15.90
2019-04-04T17:54:50.118Z,11.78
2019-04-04T17:57:53.382Z,17.62
2019-04-04T18:00:56.709Z,18.27
2019-04-04T18:04:00.070Z,11.70
2019-04-04T18:07:03.206Z,12.33
2019-04-04T18:10:07.015Z,18.92
2019-04-04T18:13:11.293Z,11.83
2019-04-04T18:16:14.834Z,11.73
2019-04-04T18:19:18.095Z,15.55
2019-04-04T18:22:21.499Z,28.15
2019-04-04T18:25:24.726Z,20.82
2019-04-04T18:28:27.990Z,26.02
2019-04-04T18:31:31.127Z,24.27
2019-04-04T18:34:34.373Z,15.70
2019-04-04T18:37:38.104Z,17.87
2019-04-04T18:40:41.320Z,18.05
2019-04-04T18:43:44.479Z,16.97
2019-04-04T18:46:47.815Z,13.30
2019-04-04T18:49:51.075Z,15.65
2019-04-04T18:52:54.262Z,11.78
2019-04-04T18:55:57.497Z,14.83
2019-04-04T18:59:00.661Z,14.35
2019-04-04T19:02:22.438Z,14.68
2019-04-04T19:05:25.581Z,17.30
2019-04-04T19:08:28.786Z,15.08
2019-04-04T19:11:31.912Z,19.20
2019-04-04T19:14:35.063Z,14.83
2019-04-04T19:17:38.371Z,17.30
2019-04-04T19:20:41.590Z,14.68
2019-04-04T19:23:49.445Z,15.30
2019-04-04T19:26:49.723Z,18.45
2019-04-04T19:29:52.880Z,17.40
2019-04-04T19:32:55.979Z,13.45
2019-04-04T19:35:59.423Z,13.53
2019-04-04T19:39:04.723Z,13.98
2019-04-04T19:42:08.474Z,14.47
2019-04-04T19:45:13.162Z,13.43
2019-04-04T19:48:16.361Z,15.58
2019-04-04T19:51:19.695Z,17.62
2019-04-04T19:54:22.953Z,16.73
2019-04-04T19:57:28.466Z,17.42
2019-04-04T20:00:32.243Z,20.82
2019-04-04T20:03:35.418Z,20.50
2019-04-04T20:06:38.629Z,18.05
2019-04-04T20:09:41.790Z,17.73
2019-04-04T20:12:45.197Z,17.57
2019-04-04T20:15:48.618Z,14.33
2019-04-04T20:18:52.957Z,15.55
2019-04-04T20:21:56.562Z,14.63
2019-04-04T20:24:59.721Z,15.58
2019-04-04T20:28:03.069Z,14.85
2019-04-04T20:31:06.302Z,16.07
2019-04-04T20:34:09.410Z,17.25
2019-04-04T20:37:12.602Z,18.40
2019-04-04T20:40:15.898Z,14.10
2019-04-04T20:43:19.089Z,13.22
2019-04-04T20:46:22.286Z,16.52
2019-04-04T20:49:25.098Z,13.50
2019-04-04T20:52:28.177Z,13.08
2019-04-04T20:55:30.970Z,17.90
2019-04-04T20:58:34.000Z,16.87
2019-04-04T21:01:37.130Z,16.80
2019-04-04T21:04:40.489Z,16.45
2019-04-04T21:07:43.741Z,16.80
2019-04-04T21:10:46.929Z,17.67
2019-04-04T21:13:56.135Z,16.80
2019-04-04T21:16:55.654Z,19.45
2019-04-04T21:19:58.878Z,15.60
2019-04-04T21:23:03.193Z,14.47
2019-04-04T21:26:06.394Z,15.85
2019-04-04T21:29:09.694Z,16.23
2019-04-04T21:32:12.883Z,17.32
2019-04-04T21:35:16.074Z,15.20
2019-04-04T21:38:19.207Z,13.45
2019-04-04T21:41:22.479Z,17.35
2019-04-04T21:49:00.748Z,15.85
2019-04-04T21:52:03.938Z,18.82
2019-04-04T21:55:06.774Z,23.10
2019-04-04T21:58:09.923Z,19.77
2019-04-04T22:01:13.202Z,12.98
2019-04-04T22:04:16.370Z,12.82
2019-04-04T22:07:19.614Z,17.42
2019-04-04T22:10:22.872Z,17.35
2019-04-04T22:13:26.234Z,18.15
2019-04-04T22:16:29.379Z,16.45
2019-04-04T22:19:32.466Z,16.07
2019-04-04T22:22:35.895Z,15.63
2019-04-04T22:25:39.249Z,13.90
2019-04-04T22:28:43.543Z,15.03
2019-04-04T22:31:46.770Z,17.00
2019-04-04T22:34:49.974Z,15.08
2019-04-04T22:37:53.101Z,15.93
2019-04-04T22:40:56.258Z,16.12
2019-04-04T22:44:03.601Z,16.50
2019-04-04T22:47:04.281Z,14.65
2019-04-04T22:50:07.929Z,17.77
2019-04-04T22:53:12.373Z,17.12
2019-04-04T22:56:15.714Z,22.07
2019-04-04T22:59:18.906Z,17.35
2019-04-04T23:02:22.201Z,15.43
2019-04-04T23:05:25.407Z,16.12
2019-04-04T23:08:30.067Z,18.35
2019-04-04T23:11:33.117Z,16.55
2019-04-04T23:14:47.508Z,21.23
2019-04-04T23:17:40.906Z,20.75
2019-04-04T23:20:44.146Z,20.05
2019-04-04T23:23:47.291Z,21.00
2019-04-04T23:26:50.322Z,21.70
2019-04-04T23:29:53.517Z,18.55
2019-04-04T23:32:56.814Z,19.42
2019-04-04T23:36:00.320Z,20.45
2019-04-04T23:39:05.889Z,20.27
2019-04-04T23:42:09.270Z,21.73
2019-04-04T23:45:12.665Z,17.82
2019-04-04T23:48:15.862Z,20.57
2019-04-04T23:51:19.062Z,16.75
2019-04-04T23:54:22.250Z,24.37
2019-04-04T23:57:25.766Z,23.20
